Time;durP1;ratioP1;P1;durP2;ratioP2;P2;SDS_P1;SDS_P2;PMS_P1;PMS_P2;Temp;Humidity;BMP_temperature;BMP_pressure;BME280_temperature;BME280_humidity;BME280_pressure;Samples;Min_cycle;Max_cycle;Signal;HPM_P1;HPM_P2
2022/09/21 00:00:24;;;;;;;6.30;4.32;;;;;;;9.70;100.00;102545.28;5028066;28;20080;-66
2022/09/21 00:02:50;;;;;;;6.75;4.10;;;;;;;9.67;100.00;102550.25;5022155;28;20026;-66
2022/09/21 00:05:16;;;;;;;6.47;4.47;;;;;;;9.66;100.00;102548.50;5018899;28;20471;-66
2022/09/21 00:07:41;;;;;;;8.02;4.25;;;;;;;9.62;100.00;102552.56;5024589;28;20022;-66
2022/09/21 00:10:07;;;;;;;9.65;5.22;;;;;;;9.62;100.00;102552.56;5016732;28;20033;-65
2022/09/21 00:12:32;;;;;;;4.72;4.20;;;;;;;9.61;100.00;102550.75;5027543;28;20514;-65
2022/09/21 00:14:57;;;;;;;6.72;4.80;;;;;;;9.58;100.00;102554.06;5027620;28;20025;-65
2022/09/21 00:17:23;;;;;;;9.50;4.57;;;;;;;9.56;100.00;102550.47;5027378;28;20035;-65
2022/09/21 00:19:48;;;;;;;13.02;5.82;;;;;;;9.49;100.00;102541.44;5026962;28;20021;-65
2022/09/21 00:22:13;;;;;;;9.60;5.07;;;;;;;9.43;100.00;102553.06;5027926;28;20028;-66
2022/09/21 00:24:39;;;;;;;4.38;3.97;;;;;;;9.35;100.00;102543.13;5027504;28;20469;-65
2022/09/21 00:27:04;;;;;;;6.68;4.32;;;;;;;9.30;100.00;102547.09;5027814;28;20017;-65
2022/09/21 00:29:29;;;;;;;7.22;5.18;;;;;;;9.24;100.00;102544.13;5027142;28;20037;-65
2022/09/21 00:31:54;;;;;;;7.35;4.70;;;;;;;9.20;100.00;102547.31;5026931;28;20026;-65
2022/09/21 00:34:20;;;;;;;6.65;4.80;;;;;;;9.20;100.00;102548.22;5027649;28;20059;-65
2022/09/21 00:36:45;;;;;;;6.45;4.38;;;;;;;9.24;100.00;102551.91;5027150;28;20021;-65
2022/09/21 00:39:11;;;;;;;6.28;3.80;;;;;;;9.27;100.00;102554.69;5027795;28;20032;-65
2022/09/21 00:41:36;;;;;;;6.15;3.88;;;;;;;9.30;100.00;102559.16;5026944;28;20025;-65
2022/09/21 00:44:17;;;;;;;8.57;4.60;;;;;;;9.27;100.00;102553.78;5026700;28;20014;-65
2022/09/21 00:46:44;;;;;;;7.18;4.13;;;;;;;9.25;100.00;102556.25;5027260;28;20029;-65
2022/09/21 00:49:09;;;;;;;5.72;4.45;;;;;;;9.18;100.00;102554.97;5026942;28;20469;-65
2022/09/21 00:51:36;;;;;;;5.88;3.67;;;;;;;9.15;100.00;102540.94;5026632;28;20167;-66
2022/09/21 00:54:07;;;;;;;5.50;4.15;;;;;;;9.12;100.00;102554.59;5031827;28;20394;-66
2022/09/21 00:56:35;;;;;;;6.72;4.63;;;;;;;9.09;100.00;102552.69;5036402;28;20028;-66
2022/09/21 00:59:01;;;;;;;6.07;4.82;;;;;;;9.09;100.00;102559.53;5026288;28;20381;-65
2022/09/21 01:01:27;;;;;;;6.28;4.60;;;;;;;9.08;100.00;102553.50;5033714;28;20036;-65
2022/09/21 01:03:55;;;;;;;5.22;4.70;;;;;;;9.06;100.00;102560.25;5031976;28;20029;-65
2022/09/21 01:06:21;;;;;;;6.72;4.72;;;;;;;9.05;100.00;102553.25;5037828;28;20087;-65
2022/09/21 01:08:53;;;;;;;7.55;4.32;;;;;;;9.03;100.00;102554.84;5008106;28;20549;-65
2022/09/21 01:11:44;;;;;;;6.20;4.38;;;;;;;9.05;100.00;102553.25;5026070;28;20032;-66
2022/09/21 01:14:33;;;;;;;5.70;4.88;;;;;;;9.02;100.00;102553.06;5039197;28;20548;-65
2022/09/21 01:17:01;;;;;;;6.63;4.70;;;;;;;8.98;100.00;102553.66;5023681;28;20175;-65
2022/09/21 01:20:03;;;;;;;9.10;5.45;;;;;;;8.92;100.00;102554.16;5025441;28;20025;-65
2022/09/21 01:22:38;;;;;;;7.55;5.57;;;;;;;8.88;100.00;102554.75;5025491;28;20470;-65
2022/09/21 01:25:25;;;;;;;9.57;5.43;;;;;;;8.86;100.00;102554.66;5038295;28;20676;-65
2022/09/21 01:28:07;;;;;;;4.88;4.45;;;;;;;8.84;100.00;102560.50;5025740;28;20030;-65
2022/09/21 01:30:35;;;;;;;8.25;4.97;;;;;;;8.82;100.00;102559.50;5027840;28;20017;-65
2022/09/21 01:33:13;;;;;;;8.20;5.30;;;;;;;8.80;100.00;102556.81;5029749;28;20029;-65
2022/09/21 01:35:45;;;;;;;6.93;5.38;;;;;;;8.82;100.00;102556.91;5030081;28;20432;-65
2022/09/21 01:38:20;;;;;;;6.15;4.82;;;;;;;8.82;100.00;102560.41;5029735;28;20029;-65
2022/09/21 01:40:51;;;;;;;5.95;5.25;;;;;;;8.83;100.00;102554.44;5036417;28;20024;-65
2022/09/21 01:43:27;;;;;;;6.28;5.55;;;;;;;8.81;100.00;102553.44;5036582;28;20515;-65
2022/09/21 01:46:00;;;;;;;5.57;4.55;;;;;;;8.79;100.00;102555.03;5029404;28;20227;-65
2022/09/21 01:48:25;;;;;;;13.32;5.95;;;;;;;8.78;100.00;102553.22;5030200;28;20018;-65
2022/09/21 01:50:55;;;;;;;6.10;4.85;;;;;;;8.77;100.00;102549.78;5029243;28;20029;-65
2022/09/21 01:53:44;;;;;;;7.95;5.13;;;;;;;8.75;100.00;102553.03;5029360;28;20120;-65
2022/09/21 01:56:16;;;;;;;7.63;5.30;;;;;;;8.72;100.00;102553.75;5042341;28;20037;-65
2022/09/21 01:58:49;;;;;;;6.82;5.35;;;;;;;8.70;100.00;102557.00;5028371;28;20033;-65
2022/09/21 02:01:18;;;;;;;6.57;4.80;;;;;;;8.67;100.00;102554.22;5025174;28;20040;-65
2022/09/21 02:03:50;;;;;;;7.28;4.63;;;;;;;8.65;100.00;102547.22;5039422;28;20020;-65
2022/09/21 02:06:17;;;;;;;5.68;5.18;;;;;;;8.62;100.00;102549.63;5033320;28;20411;-66
2022/09/21 02:08:43;;;;;;;8.57;5.38;;;;;;;8.61;100.00;102560.75;5037488;28;20036;-65
2022/09/21 02:11:11;;;;;;;7.45;5.05;;;;;;;8.60;100.00;102556.38;5029282;28;20393;-65
2022/09/21 02:13:41;;;;;;;8.95;5.30;;;;;;;8.60;100.00;102553.78;5029114;28;20339;-65
2022/09/21 02:16:22;;;;;;;7.40;5.53;;;;;;;8.60;100.00;102558.94;5029168;28;20104;-65
2022/09/21 02:19:23;;;;;;;7.03;5.20;;;;;;;8.60;100.00;102556.38;5029271;28;20397;-64
2022/09/21 02:22:14;;;;;;;5.18;4.68;;;;;;;8.58;100.00;102554.50;5039847;28;20032;-65
2022/09/21 02:24:54;;;;;;;7.18;5.55;;;;;;;8.53;100.00;102551.53;5028650;28;20021;-65
2022/09/21 02:27:40;;;;;;;7.78;5.50;;;;;;;8.48;100.00;102552.91;5028721;28;20029;-64
2022/09/21 02:30:10;;;;;;;6.50;5.90;;;;;;;8.41;100.00;102549.94;5033612;28;20052;-64
2022/09/21 02:32:54;;;;;;;7.68;5.60;;;;;;;8.38;100.00;102554.88;5036369;28;20056;-65
2022/09/21 02:35:37;;;;;;;7.60;4.70;;;;;;;8.32;100.00;102546.72;5026554;28;20076;-64
2022/09/21 02:38:33;;;;;;;9.00;4.97;;;;;;;8.28;100.00;102550.78;5028816;28;20455;-64
2022/09/21 02:41:23;;;;;;;7.75;5.38;;;;;;;8.23;100.00;102546.06;5028974;28;20099;-64
2022/09/21 02:43:59;;;;;;;8.02;5.18;;;;;;;8.19;100.00;102549.22;5031202;28;20067;-64
2022/09/21 02:46:30;;;;;;;7.20;4.70;;;;;;;8.17;100.00;102543.94;5028647;28;20060;-64
2022/09/21 02:49:07;;;;;;;7.28;4.57;;;;;;;8.14;100.00;102551.50;5028629;28;20030;-64
2022/09/21 02:51:37;;;;;;;6.68;4.63;;;;;;;8.13;100.00;102544.56;5028207;28;20036;-65
2022/09/21 02:54:07;;;;;;;6.53;5.70;;;;;;;8.08;100.00;102549.38;5028649;28;20115;-65
2022/09/21 02:56:33;;;;;;;7.85;5.47;;;;;;;8.06;100.00;102548.38;5028165;28;20604;-64
2022/09/21 02:59:03;;;;;;;8.15;4.70;;;;;;;8.02;100.00;102548.97;5028842;28;20438;-64
2022/09/21 03:01:30;;;;;;;6.47;4.57;;;;;;;7.97;100.00;102553.78;5010039;28;20470;-65
2022/09/21 03:03:56;;;;;;;6.20;4.85;;;;;;;7.92;100.00;102547.41;5039497;28;20548;-64
2022/09/21 03:06:21;;;;;;;7.60;4.82;;;;;;;7.87;100.00;102552.25;5028309;28;20163;-64
2022/09/21 03:08:47;;;;;;;5.88;5.28;;;;;;;7.81;100.00;102542.38;5028267;28;20028;-64
2022/09/21 03:11:16;;;;;;;5.95;4.72;;;;;;;7.78;100.00;102551.59;5027379;28;20083;-64
2022/09/21 03:13:43;;;;;;;8.98;4.95;;;;;;;7.77;100.00;102549.81;5027989;28;20148;-64
2022/09/21 03:16:08;;;;;;;5.57;5.03;;;;;;;7.78;100.00;102552.50;5027509;28;20239;-64
2022/09/21 03:18:34;;;;;;;5.00;4.57;;;;;;;7.77;100.00;102555.84;5036284;28;20025;-64
2022/09/21 03:20:59;;;;;;;4.72;3.90;;;;;;;7.79;100.00;102555.97;5033058;28;20021;-64
2022/09/21 03:23:25;;;;;;;6.50;4.55;;;;;;;7.74;100.00;102550.47;5028107;28;20025;-64
2022/09/21 03:25:53;;;;;;;8.98;4.93;;;;;;;7.66;100.00;102552.50;5027857;28;20018;-64
2022/09/21 03:28:19;;;;;;;10.10;4.57;;;;;;;7.61;100.00;102553.88;5028456;28;20025;-64
2022/09/21 03:30:46;;;;;;;6.97;4.97;;;;;;;7.58;100.00;102561.38;5028101;28;20053;-64
2022/09/21 03:33:11;;;;;;;7.43;4.70;;;;;;;7.55;100.00;102562.09;5027505;28;20029;-64
2022/09/21 03:35:38;;;;;;;5.97;5.38;;;;;;;7.52;100.00;102555.81;5027250;28;20103;-64
2022/09/21 03:38:04;;;;;;;7.22;4.45;;;;;;;7.50;100.00;102566.00;5027954;28;20048;-65
2022/09/21 03:40:30;;;;;;;8.00;4.70;;;;;;;7.50;100.00;102567.69;5030109;28;20029;-64
2022/09/21 03:42:55;;;;;;;8.40;4.38;;;;;;;7.44;100.00;102571.63;5038317;28;20045;-64
2022/09/21 03:45:21;;;;;;;7.18;4.22;;;;;;;7.39;100.00;102562.66;5020740;28;20045;-64
2022/09/21 03:47:47;;;;;;;5.90;4.15;;;;;;;7.36;100.00;102567.56;5026033;28;20112;-64
2022/09/21 03:50:12;;;;;;;6.68;4.40;;;;;;;7.33;100.00;102568.25;5027124;28;20358;-64
2022/09/21 03:52:38;;;;;;;5.45;4.40;;;;;;;7.34;100.00;102566.56;5027013;28;20068;-64
2022/09/21 03:55:05;;;;;;;6.22;4.93;;;;;;;7.33;100.00;102569.94;5027522;28;20064;-65
2022/09/21 03:57:31;;;;;;;8.73;4.93;;;;;;;7.32;100.00;102575.91;5026923;28;20025;-65
2022/09/21 03:59:56;;;;;;;6.18;4.75;;;;;;;7.30;100.00;102573.16;5027141;28;20013;-64
2022/09/21 04:02:21;;;;;;;8.10;4.65;;;;;;;7.29;100.00;102573.06;5027399;28;20099;-65
2022/09/21 04:04:47;;;;;;;7.30;4.32;;;;;;;7.29;100.00;102571.38;5029270;28;20032;-64
2022/09/21 04:07:14;;;;;;;7.07;4.68;;;;;;;7.28;100.00;102566.13;5033928;28;20417;-64
2022/09/21 04:09:39;;;;;;;8.60;4.93;;;;;;;7.27;100.00;102577.22;5026981;28;20028;-64
2022/09/21 04:12:04;;;;;;;5.88;5.20;;;;;;;7.25;100.00;102564.19;5026591;28;20466;-64
2022/09/21 04:14:30;;;;;;;6.32;4.80;;;;;;;7.26;100.00;102567.69;5026687;28;20552;-64
2022/09/21 04:16:56;;;;;;;6.18;4.70;;;;;;;7.26;100.00;102559.94;5026502;28;20024;-64
2022/09/21 04:19:21;;;;;;;7.18;4.95;;;;;;;7.23;100.00;102570.06;5027036;28;20532;-64
2022/09/21 04:21:50;;;;;;;8.20;5.00;;;;;;;7.20;100.00;102573.28;5026928;28;20481;-64
2022/09/21 04:24:15;;;;;;;6.95;5.32;;;;;;;7.17;100.00;102571.41;5026875;28;20036;-64
2022/09/21 04:26:41;;;;;;;4.72;4.32;;;;;;;7.17;100.00;102566.25;5026300;28;20025;-66
2022/09/21 04:29:06;;;;;;;6.78;4.80;;;;;;;7.14;100.00;102568.56;5036837;28;20094;-64
2022/09/21 04:31:32;;;;;;;5.07;4.57;;;;;;;7.10;100.00;102576.88;5028730;28;20275;-64
2022/09/21 04:33:57;;;;;;;7.85;4.78;;;;;;;7.07;100.00;102579.22;5027029;28;20063;-64
2022/09/21 04:36:24;;;;;;;5.15;4.63;;;;;;;7.07;100.00;102574.97;5026399;28;20478;-64
2022/09/21 04:38:50;;;;;;;8.32;4.57;;;;;;;7.06;100.00;102580.00;5025796;28;20351;-64
2022/09/21 04:41:16;;;;;;;8.65;5.30;;;;;;;7.04;100.00;102581.56;5034961;28;20021;-64
2022/09/21 04:43:43;;;;;;;6.45;4.68;;;;;;;7.01;100.00;102583.94;5031164;28;20077;-64
2022/09/21 04:46:12;;;;;;;7.43;5.00;;;;;;;7.02;100.00;102577.97;5026323;28;20040;-63
2022/09/21 04:48:38;;;;;;;5.53;4.85;;;;;;;7.02;100.00;102583.13;5026794;28;20029;-64
2022/09/21 04:51:06;;;;;;;7.47;5.07;;;;;;;7.01;100.00;102584.84;5027041;28;20059;-64
2022/09/21 04:53:32;;;;;;;6.57;4.88;;;;;;;6.99;100.00;102585.47;5033353;28;20405;-64
2022/09/21 04:55:57;;;;;;;6.45;5.13;;;;;;;6.95;100.00;102580.09;5026048;28;20021;-64
2022/09/21 04:58:22;;;;;;;7.38;4.82;;;;;;;6.94;100.00;102592.88;5025918;28;20067;-64
2022/09/21 05:00:52;;;;;;;6.68;4.85;;;;;;;6.91;100.00;102583.22;5025925;28;20017;-64
2022/09/21 05:03:18;;;;;;;4.45;4.05;;;;;;;6.89;100.00;102584.78;5026858;28;20098;-63
2022/09/21 05:05:48;;;;;;;10.80;6.38;;;;;;;6.90;100.00;102590.84;5032682;28;20112;-64
2022/09/21 05:08:14;;;;;;;5.13;4.25;;;;;;;6.90;100.00;102581.44;5041482;28;20404;-63
2022/09/21 05:10:39;;;;;;;4.85;4.45;;;;;;;6.88;100.00;102583.00;5030764;28;20029;-64
2022/09/21 05:13:04;;;;;;;6.75;4.57;;;;;;;6.86;100.00;102594.88;5035577;28;20054;-63
2022/09/21 05:15:29;;;;;;;7.63;5.20;;;;;;;6.80;100.00;102595.31;5039290;28;20029;-64
2022/09/21 05:17:55;;;;;;;5.72;4.70;;;;;;;6.79;100.00;102597.75;5030147;28;20025;-64
2022/09/21 05:20:20;;;;;;;7.30;5.40;;;;;;;6.77;100.00;102594.16;5030585;28;20013;-64
2022/09/21 05:22:45;;;;;;;11.52;5.45;;;;;;;6.77;100.00;102591.59;5031603;28;20017;-64
2022/09/21 05:25:10;;;;;;;5.38;4.57;;;;;;;6.75;100.00;102601.78;5032181;28;20032;-64
2022/09/21 05:27:36;;;;;;;5.97;4.85;;;;;;;6.75;100.00;102599.22;5032522;28;20063;-63
2022/09/21 05:30:02;;;;;;;7.07;5.00;;;;;;;6.72;100.00;102599.91;5032734;28;20029;-64
2022/09/21 05:32:52;;;;;;;5.75;4.32;;;;;;;6.72;100.00;102601.56;5033774;28;20029;-64
2022/09/21 05:35:36;;;;;;;4.93;4.28;;;;;;;6.69;100.00;102606.50;5033681;28;20049;-63
2022/09/21 05:38:21;;;;;;;9.68;4.93;;;;;;;6.67;100.00;102603.81;5028451;28;20063;-64
2022/09/21 05:40:49;;;;;;;6.55;4.85;;;;;;;6.67;100.00;102608.97;5029040;28;20124;-64
2022/09/21 05:43:14;;;;;;;6.50;5.22;;;;;;;6.67;100.00;102611.53;5038157;28;20480;-63
2022/09/21 05:45:44;;;;;;;7.38;5.07;;;;;;;6.67;100.00;102608.97;5033599;28;20049;-64
2022/09/21 05:48:13;;;;;;;7.97;5.00;;;;;;;6.66;100.00;102620.03;5033855;28;20033;-64
2022/09/21 05:50:54;;;;;;;11.50;5.40;;;;;;;6.67;100.00;102614.09;5033218;28;20067;-64
2022/09/21 05:53:56;;;;;;;7.22;5.22;;;;;;;6.71;100.00;102620.41;5033695;28;20045;-62
2022/09/21 05:56:38;;;;;;;6.63;5.40;;;;;;;6.72;100.00;102623.09;5031189;28;20127;-64
2022/09/21 05:59:22;;;;;;;6.70;5.10;;;;;;;6.76;100.00;102624.22;5033178;28;20034;-64
2022/09/21 06:02:14;;;;;;;6.15;5.55;;;;;;;6.79;100.00;102627.03;5031679;28;20051;-64
2022/09/21 06:04:40;;;;;;;5.70;4.95;;;;;;;6.84;100.00;102628.25;5032599;28;20163;-64
2022/09/21 06:07:05;;;;;;;6.38;5.60;;;;;;;6.88;100.00;102629.41;5033022;28;20521;-64
2022/09/21 06:09:30;;;;;;;8.43;5.32;;;;;;;6.91;100.00;102634.78;5033208;28;20037;-64
2022/09/21 06:11:56;;;;;;;6.50;5.90;;;;;;;6.93;100.00;102638.38;5032827;28;20519;-64
2022/09/21 06:14:24;;;;;;;7.03;5.45;;;;;;;6.95;100.00;102634.25;5032275;28;20031;-64
2022/09/21 06:16:50;;;;;;;8.95;5.80;;;;;;;6.97;100.00;102637.84;5028353;28;20017;-64
2022/09/21 06:19:16;;;;;;;7.35;5.93;;;;;;;7.00;100.00;102639.72;5028715;28;20075;-64
2022/09/21 06:21:41;;;;;;;6.95;5.82;;;;;;;7.04;100.00;102636.63;5028679;28;20096;-64
2022/09/21 06:24:07;;;;;;;8.05;6.20;;;;;;;7.07;100.00;102639.41;5029182;28;20481;-64
2022/09/21 06:26:32;;;;;;;7.55;5.90;;;;;;;7.13;100.00;102646.72;5028750;28;20032;-64
2022/09/21 06:28:57;;;;;;;6.30;5.68;;;;;;;7.19;100.00;102642.03;5029667;28;20199;-64
2022/09/21 06:31:23;;;;;;;7.63;5.82;;;;;;;7.29;100.00;102637.53;5029829;28;20083;-63
2022/09/21 06:33:48;;;;;;;7.38;6.70;;;;;;;7.39;100.00;102634.88;5029168;28;20029;-63
2022/09/21 06:36:13;;;;;;;8.43;7.57;;;;;;;7.49;100.00;102638.13;5028647;28;20033;-63
2022/09/21 06:38:39;;;;;;;9.02;8.10;;;;;;;7.60;100.00;102639.81;5028629;28;20033;-63
2022/09/21 06:41:04;;;;;;;8.82;7.15;;;;;;;7.68;100.00;102638.69;5028398;28;20053;-63
2022/09/21 06:43:31;;;;;;;8.80;7.38;;;;;;;7.83;100.00;102643.16;5027683;28;20041;-64
2022/09/21 06:45:59;;;;;;;10.90;9.77;;;;;;;8.21;100.00;102630.28;5028189;28;20032;-63
2022/09/21 06:48:26;;;;;;;12.13;8.50;;;;;;;8.76;100.00;102632.38;5028189;28;20477;-64
2022/09/21 06:50:59;;;;;;;10.32;7.93;;;;;;;9.15;100.00;102632.38;5028005;28;20021;-64
2022/09/21 06:53:26;;;;;;;10.93;8.45;;;;;;;9.46;100.00;102628.34;5027978;28;20037;-63
2022/09/21 06:55:52;;;;;;;8.20;6.95;;;;;;;9.61;100.00;102629.31;5028210;28;20499;-63
2022/09/21 06:58:18;;;;;;;8.30;6.88;;;;;;;9.65;100.00;102633.00;5028816;28;20060;-63
2022/09/21 07:00:44;;;;;;;7.13;6.43;;;;;;;9.61;100.00;102633.59;5028468;28;20026;-63
2022/09/21 07:03:12;;;;;;;9.95;6.63;;;;;;;9.53;100.00;102635.69;5028640;28;20026;-63
2022/09/21 07:05:38;;;;;;;6.88;6.18;;;;;;;9.40;100.00;102635.69;5029382;28;20384;-63
2022/09/21 07:08:04;;;;;;;7.53;6.80;;;;;;;9.37;100.00;102644.16;5029874;28;20025;-63
2022/09/21 07:10:29;;;;;;;9.95;8.18;;;;;;;9.35;100.00;102641.44;5029776;28;20047;-63
2022/09/21 07:12:54;;;;;;;11.40;7.30;;;;;;;9.36;100.00;102643.25;5027877;28;20021;-63
2022/09/21 07:15:20;;;;;;;9.00;7.28;;;;;;;9.39;100.00;102641.66;5029846;28;20029;-63
2022/09/21 07:17:46;;;;;;;7.97;6.60;;;;;;;9.41;100.00;102638.38;5028737;28;20030;-63
2022/09/21 07:20:11;;;;;;;10.75;8.10;;;;;;;9.49;100.00;102638.88;5029468;28;20025;-64
2022/09/21 07:22:37;;;;;;;10.32;8.00;;;;;;;9.70;100.00;102639.38;5029587;28;20026;-63
2022/09/21 07:25:04;;;;;;;11.88;8.93;;;;;;;10.18;100.00;102636.31;5011558;28;20017;-64
2022/09/21 07:27:31;;;;;;;12.93;8.50;;;;;;;11.11;100.00;102641.81;5028331;28;20055;-64
2022/09/21 07:29:56;;;;;;;9.38;7.05;;;;;;;11.92;100.00;102638.59;5028868;28;20033;-63
2022/09/21 07:32:22;;;;;;;8.38;6.22;;;;;;;12.47;100.00;102636.31;5029091;28;20040;-63
2022/09/21 07:34:47;;;;;;;10.57;5.57;;;;;;;13.08;100.00;102629.88;5028747;28;20022;-64
2022/09/21 07:37:13;;;;;;;8.40;5.22;;;;;;;13.48;100.00;102630.06;5028951;28;20176;-64
2022/09/21 07:39:39;;;;;;;8.65;4.40;;;;;;;13.77;93.88;102634.91;5028811;28;20049;-64
2022/09/21 07:42:07;;;;;;;4.85;4.30;;;;;;;14.35;94.20;102634.94;5028946;28;20544;-64
2022/09/21 07:44:33;;;;;;;4.78;4.28;;;;;;;14.73;94.46;102632.25;5028753;28;20124;-64
2022/09/21 07:46:58;;;;;;;7.03;4.00;;;;;;;15.18;88.97;102626.31;5028653;28;20445;-65
2022/09/21 07:49:23;;;;;;;8.10;4.18;;;;;;;15.78;91.14;102624.31;5028585;28;20040;-64
2022/09/21 07:51:49;;;;;;;6.38;3.50;;;;;;;16.16;84.40;102626.63;5016769;28;20029;-65
2022/09/21 07:54:14;;;;;;;4.90;3.50;;;;;;;16.43;82.51;102620.63;5027560;28;20381;-64
2022/09/21 07:56:41;;;;;;;5.82;2.85;;;;;;;16.64;77.38;102621.34;5029165;28;20047;-65
2022/09/21 07:59:07;;;;;;;5.50;3.10;;;;;;;16.96;75.62;102620.69;5028430;28;20079;-64
2022/09/21 08:01:36;;;;;;;7.90;3.15;;;;;;;17.25;73.88;102619.03;5028895;28;20033;-64
2022/09/21 08:04:03;;;;;;;5.55;2.88;;;;;;;17.66;73.37;102625.56;5029225;28;20442;-65
2022/09/21 08:06:31;;;;;;;7.38;2.80;;;;;;;17.71;70.76;102618.72;5021685;28;20400;-65
2022/09/21 08:09:00;;;;;;;3.97;2.42;;;;;;;18.13;71.10;102621.69;5022953;28;20413;-65
2022/09/21 08:11:27;;;;;;;4.97;2.20;;;;;;;18.24;70.36;102612.41;5028564;28;20026;-65
2022/09/21 08:13:54;;;;;;;3.97;2.28;;;;;;;18.09;66.93;102615.47;5027793;28;20021;-65
2022/09/21 08:16:20;;;;;;;5.75;2.60;;;;;;;18.18;71.08;102612.25;5028247;28;20100;-66
2022/09/21 08:18:45;;;;;;;5.03;2.42;;;;;;;18.26;68.27;102612.44;5028364;28;20025;-65
2022/09/21 08:21:12;;;;;;;5.25;2.30;;;;;;;18.07;69.20;102618.88;5027494;28;20021;-65
2022/09/21 08:23:41;;;;;;;5.53;2.40;;;;;;;18.20;68.99;102621.06;5010782;28;20022;-65
2022/09/21 08:26:09;;;;;;;6.18;2.30;;;;;;;18.23;67.19;102617.59;5028414;28;20084;-64
2022/09/21 08:28:35;;;;;;;4.57;2.30;;;;;;;18.50;67.82;102620.94;5028431;28;20083;-65
2022/09/21 08:31:05;;;;;;;3.63;2.20;;;;;;;18.96;65.71;102619.53;5028222;28;20257;-65
2022/09/21 08:33:31;;;;;;;4.97;1.70;;;;;;;18.86;60.74;102625.41;5028043;28;20825;-65
2022/09/21 08:35:58;;;;;;;4.38;2.53;;;;;;;18.51;61.59;102622.75;5028379;28;20052;-65
2022/09/21 08:38:25;;;;;;;5.15;1.85;;;;;;;18.31;62.11;102625.72;5027883;28;20408;-65
2022/09/21 08:40:52;;;;;;;4.13;2.13;;;;;;;18.21;66.11;102625.44;5027502;28;20099;-65
2022/09/21 08:43:39;;;;;;;4.70;1.88;;;;;;;18.31;62.39;102628.34;5027737;28;20053;-65
2022/09/21 08:46:09;;;;;;;3.13;1.40;;;;;;;18.51;61.62;102622.75;5027489;28;20037;-65
2022/09/21 08:48:41;;;;;;;4.40;1.52;;;;;;;18.54;63.57;102628.97;5027969;28;20037;-65
2022/09/21 08:51:10;;;;;;;3.33;1.80;;;;;;;18.73;61.64;102624.19;5027732;28;20030;-65
2022/09/21 08:53:42;;;;;;;5.65;1.60;;;;;;;18.58;61.85;102630.81;5027991;28;20062;-65
2022/09/21 08:56:12;;;;;;;6.13;1.55;;;;;;;18.69;61.41;102628.47;5027660;28;20120;-65
2022/09/21 08:58:40;;;;;;;4.30;1.30;;;;;;;18.50;61.34;102627.09;5027905;28;20100;-65
2022/09/21 09:01:29;;;;;;;3.67;1.52;;;;;;;17.99;61.13;102630.03;5027364;28;20331;-65
2022/09/21 09:04:13;;;;;;;4.90;1.42;;;;;;;17.87;60.73;102633.19;5027788;28;20029;-65
2022/09/21 09:07:08;;;;;;;5.55;1.38;;;;;;;17.86;60.80;102627.91;5027881;28;20508;-65
2022/09/21 09:10:00;;;;;;;2.83;1.05;;;;;;;18.10;63.22;102629.44;5027470;28;20067;-65
2022/09/21 09:12:25;;;;;;;;;;;;;;;18.13;60.80;102638.28;5020692;28;20124;-65
2022/09/21 09:15:18;;;;;;;2.38;1.00;;;;;;;17.87;60.83;102640.16;5027469;28;19944;-65
2022/09/21 09:17:52;;;;;;;1.05;0.63;;;;;;;17.93;60.11;102635.09;5027742;28;20276;-65
2022/09/21 09:20:24;;;;;;;3.10;1.02;;;;;;;18.04;62.10;102640.66;5028071;28;20055;-65
2022/09/21 09:23:21;;;;;;;4.00;1.25;;;;;;;17.67;60.23;102637.81;5027313;28;20025;-65
2022/09/21 09:25:50;;;;;;;3.85;1.13;;;;;;;17.61;59.71;102640.25;5022408;28;20047;-65
2022/09/21 09:28:37;;;;;;;3.83;0.60;;;;;;;17.54;61.40;102640.91;5027270;28;20021;-65
2022/09/21 09:31:15;;;;;;;3.17;1.13;;;;;;;17.41;61.84;102637.91;5027769;28;20026;-65
2022/09/21 09:33:51;;;;;;;3.90;0.80;;;;;;;17.33;60.79;102644.59;5027859;28;20113;-65
2022/09/21 09:36:17;;;;;;;2.83;1.10;;;;;;;17.39;62.42;102639.56;5026997;28;20022;-65
2022/09/21 09:38:56;;;;;;;7.22;1.40;;;;;;;17.42;62.20;102636.13;5027777;28;20044;-65
2022/09/21 09:41:49;;;;;;;4.28;1.30;;;;;;;17.44;63.26;102643.22;5027391;28;20381;-65
2022/09/21 09:44:31;;;;;;;4.07;1.20;;;;;;;17.40;61.95;102638.72;5027428;28;20408;-65
2022/09/21 09:47:08;;;;;;;2.90;0.90;;;;;;;17.30;62.02;102644.50;5027097;28;20056;-65
2022/09/21 09:50:05;;;;;;;4.85;1.08;;;;;;;17.35;63.25;102633.34;5027043;28;20420;-65
2022/09/21 09:52:32;;;;;;;2.70;0.98;;;;;;;17.26;63.39;102640.91;5031261;28;20021;-65
2022/09/21 09:54:59;;;;;;;3.67;0.80;;;;;;;17.08;59.24;102646.38;5031454;28;20054;-65
2022/09/21 09:57:32;;;;;;;2.55;0.70;;;;;;;16.95;60.72;102645.97;5030884;28;20171;-65
2022/09/21 10:00:02;;;;;;;3.75;0.73;;;;;;;16.86;61.31;102645.63;5030984;28;20021;-65
2022/09/21 10:02:28;;;;;;;3.92;1.20;;;;;;;16.92;62.91;102638.00;5030340;28;20056;-65
2022/09/21 10:05:04;;;;;;;2.35;0.80;;;;;;;16.99;61.19;102639.09;5031425;28;20108;-65
2022/09/21 10:07:41;;;;;;;1.48;0.40;;;;;;;17.01;60.91;102635.72;5031017;28;20366;-65
2022/09/21 10:10:29;;;;;;;1.35;0.50;;;;;;;17.10;60.45;102629.00;5031220;28;20031;-65
2022/09/21 10:13:11;;;;;;;1.67;0.50;;;;;;;17.31;61.49;102636.69;5030184;28;20068;-65
2022/09/21 10:15:47;;;;;;;1.63;0.50;;;;;;;17.46;59.90;102638.03;5030652;28;20029;-65
2022/09/21 10:18:24;;;;;;;2.65;0.50;;;;;;;17.50;60.13;102635.53;5030631;28;20039;-65
2022/09/21 10:20:55;;;;;;;4.00;0.60;;;;;;;17.54;57.25;102633.03;5030602;28;20036;-65
2022/09/21 10:23:21;;;;;;;2.30;0.50;;;;;;;17.65;54.13;102634.25;5030153;28;20037;-65
2022/09/21 10:25:57;;;;;;;1.88;0.70;;;;;;;17.75;55.43;102628.44;5030306;28;20473;-65
2022/09/21 10:28:22;;;;;;;2.50;0.70;;;;;;;17.79;55.93;102625.94;5030328;28;20040;-66
2022/09/21 10:30:48;;;;;;;1.85;0.60;;;;;;;17.61;51.19;102632.41;5030193;28;20025;-65
2022/09/21 10:33:21;;;;;;;2.50;0.65;;;;;;;17.45;54.78;102629.25;5029575;28;20026;-65
2022/09/21 10:35:51;;;;;;;3.70;0.70;;;;;;;17.32;56.40;102625.38;5030193;28;20046;-65
2022/09/21 10:38:18;;;;;;;1.63;0.55;;;;;;;17.36;57.22;102623.75;5029871;28;20030;-65
2022/09/21 10:40:45;;;;;;;3.28;0.90;;;;;;;17.52;56.92;102618.13;5029744;28;20513;-65
2022/09/21 10:43:34;;;;;;;3.58;1.15;;;;;;;17.71;58.19;102613.47;5029888;28;20042;-65
2022/09/21 10:46:00;;;;;;;2.20;0.50;;;;;;;17.60;58.05;102621.00;5030289;28;20025;-65
2022/09/21 10:48:27;;;;;;;4.60;1.00;;;;;;;17.40;54.12;102623.00;5030352;28;20025;-65
2022/09/21 10:50:55;;;;;;;2.67;0.77;;;;;;;17.04;55.79;102609.63;5029851;28;20090;-65
2022/09/21 10:53:28;;;;;;;0.93;0.45;;;;;;;16.74;57.01;102615.59;5029964;28;20390;-66
2022/09/21 10:56:06;;;;;;;1.73;0.65;;;;;;;16.53;58.30;102611.38;5029549;28;20544;-67
2022/09/21 10:58:33;;;;;;;4.65;0.55;;;;;;;16.45;57.17;102612.84;5030376;28;20397;-67
2022/09/21 11:01:21;;;;;;;2.65;0.60;;;;;;;16.26;58.68;102612.16;5029754;28;20477;-67
2022/09/21 11:03:55;;;;;;;2.58;0.68;;;;;;;16.25;59.23;102610.41;5029632;28;20037;-67
2022/09/21 11:06:25;;;;;;;3.75;0.60;;;;;;;16.20;60.82;102612.84;5030229;28;20025;-67
2022/09/21 11:08:57;;;;;;;4.15;0.93;;;;;;;16.13;61.14;102620.41;5030181;28;20272;-67
2022/09/21 11:11:47;;;;;;;3.90;0.70;;;;;;;16.01;60.98;102619.09;5029391;28;20535;-67
2022/09/21 11:14:19;;;;;;;3.22;0.70;;;;;;;15.92;64.34;102616.13;5029354;28;20063;-67
2022/09/21 11:16:56;;;;;;;2.70;0.60;;;;;;;15.82;63.09;102613.16;5029683;28;20084;-67
2022/09/21 11:19:37;;;;;;;2.38;0.80;;;;;;;15.76;60.29;102615.50;5029274;28;20021;-67
2022/09/21 11:22:19;;;;;;;3.30;0.70;;;;;;;15.71;64.40;102615.34;5029655;28;20071;-67
2022/09/21 11:25:02;;;;;;;2.90;0.63;;;;;;;15.73;62.36;102616.31;5029680;28;20029;-66
2022/09/21 11:27:36;;;;;;;3.15;0.68;;;;;;;15.84;62.97;102614.13;5029344;28;20040;-67
2022/09/21 11:30:05;;;;;;;2.42;0.50;;;;;;;16.10;60.53;102610.72;5028688;28;20470;-67
2022/09/21 11:32:50;;;;;;;0.80;0.40;;;;;;;16.48;52.36;102607.72;5029566;28;20484;-67
2022/09/21 11:35:34;;;;;;;2.28;0.30;;;;;;;16.98;54.21;102603.28;5029263;28;20531;-67
2022/09/21 11:38:17;;;;;;;2.50;0.50;;;;;;;17.08;50.04;102604.47;5028921;28;20492;-67
2022/09/21 11:41:05;;;;;;;2.47;0.40;;;;;;;17.36;51.82;102600.19;5029125;28;20017;-67